sensor_id;sensor_type;location;lat;lon;timestamp;P1;durP1;ratioP1;P2;durP2;ratioP2
36383;SDS011;22418;51.210;6.976;2023-05-07T00:00:28;5.40;;;2.23;;
36383;SDS011;22418;51.210;6.976;2023-05-07T00:02:59;4.75;;;2.67;;
36383;SDS011;22418;51.210;6.976;2023-05-07T00:05:31;5.05;;;2.28;;
36383;SDS011;22418;51.210;6.976;2023-05-07T00:08:01;6.57;;;2.57;;
36383;SDS011;22418;51.210;6.976;2023-05-07T00:10:32;7.63;;;2.43;;
36383;SDS011;22418;51.210;6.976;2023-05-07T00:13:03;5.20;;;2.13;;
36383;SDS011;22418;51.210;6.976;2023-05-07T00:15:33;4.23;;;2.10;;
36383;SDS011;22418;51.210;6.976;2023-05-07T00:18:04;5.67;;;1.80;;
36383;SDS011;22418;51.210;6.976;2023-05-07T00:20:34;4.60;;;2.00;;
36383;SDS011;22418;51.210;6.976;2023-05-07T00:23:05;4.27;;;1.87;;
36383;SDS011;22418;51.210;6.976;2023-05-07T00:25:35;3.30;;;1.83;;
36383;SDS011;22418;51.210;6.976;2023-05-07T00:28:06;6.30;;;2.30;;
36383;SDS011;22418;51.210;6.976;2023-05-07T00:30:37;5.17;;;2.53;;
36383;SDS011;22418;51.210;6.976;2023-05-07T00:33:07;6.63;;;2.27;;
36383;SDS011;22418;51.210;6.976;2023-05-07T00:35:38;2.97;;;1.90;;
36383;SDS011;22418;51.210;6.976;2023-05-07T00:38:08;3.30;;;2.13;;
36383;SDS011;22418;51.210;6.976;2023-05-07T00:40:39;8.27;;;2.63;;
36383;SDS011;22418;51.210;6.976;2023-05-07T00:43:10;7.00;;;2.63;;
36383;SDS011;22418;51.210;6.976;2023-05-07T00:45:40;5.20;;;2.40;;
36383;SDS011;22418;51.210;6.976;2023-05-07T00:48:11;3.60;;;2.33;;
36383;SDS011;22418;51.210;6.976;2023-05-07T00:50:42;6.05;;;2.65;;
36383;SDS011;22418;51.210;6.976;2023-05-07T00:53:13;8.73;;;2.70;;
36383;SDS011;22418;51.210;6.976;2023-05-07T00:55:44;3.80;;;2.10;;
36383;SDS011;22418;51.210;6.976;2023-05-07T00:58:15;5.43;;;2.10;;
36383;SDS011;22418;51.210;6.976;2023-05-07T01:00:46;9.52;;;2.33;;
36383;SDS011;22418;51.210;6.976;2023-05-07T01:03:16;4.87;;;2.13;;
36383;SDS011;22418;51.210;6.976;2023-05-07T01:05:47;5.80;;;2.77;;
36383;SDS011;22418;51.210;6.976;2023-05-07T01:08:18;4.38;;;2.25;;
36383;SDS011;22418;51.210;6.976;2023-05-07T01:10:49;9.00;;;1.70;;
36383;SDS011;22418;51.210;6.976;2023-05-07T01:13:20;3.83;;;2.10;;
36383;SDS011;22418;51.210;6.976;2023-05-07T01:15:51;7.82;;;2.42;;
36383;SDS011;22418;51.210;6.976;2023-05-07T01:18:21;3.73;;;2.10;;
36383;SDS011;22418;51.210;6.976;2023-05-07T01:20:52;6.30;;;2.08;;
36383;SDS011;22418;51.210;6.976;2023-05-07T01:23:26;5.97;;;1.90;;
36383;SDS011;22418;51.210;6.976;2023-05-07T01:25:58;3.08;;;2.03;;
36383;SDS011;22418;51.210;6.976;2023-05-07T01:28:28;5.13;;;1.87;;
36383;SDS011;22418;51.210;6.976;2023-05-07T01:31:02;3.43;;;1.67;;
36383;SDS011;22418;51.210;6.976;2023-05-07T01:33:34;2.58;;;1.63;;
36383;SDS011;22418;51.210;6.976;2023-05-07T01:36:06;5.18;;;2.00;;
36383;SDS011;22418;51.210;6.976;2023-05-07T01:38:38;4.30;;;2.15;;
36383;SDS011;22418;51.210;6.976;2023-05-07T01:41:11;6.40;;;1.80;;
36383;SDS011;22418;51.210;6.976;2023-05-07T01:43:42;2.67;;;1.80;;
36383;SDS011;22418;51.210;6.976;2023-05-07T01:46:13;2.65;;;1.70;;
36383;SDS011;22418;51.210;6.976;2023-05-07T01:48:45;4.03;;;1.65;;
36383;SDS011;22418;51.210;6.976;2023-05-07T01:51:16;8.90;;;1.70;;
36383;SDS011;22418;51.210;6.976;2023-05-07T01:53:47;4.13;;;2.33;;
36383;SDS011;22418;51.210;6.976;2023-05-07T01:56:20;4.32;;;1.80;;
36383;SDS011;22418;51.210;6.976;2023-05-07T01:58:51;2.80;;;1.30;;
36383;SDS011;22418;51.210;6.976;2023-05-07T02:01:22;5.82;;;1.80;;
36383;SDS011;22418;51.210;6.976;2023-05-07T02:03:52;6.43;;;1.77;;
36383;SDS011;22418;51.210;6.976;2023-05-07T02:06:23;3.17;;;1.73;;
36383;SDS011;22418;51.210;6.976;2023-05-07T02:08:54;3.50;;;1.43;;
36383;SDS011;22418;51.210;6.976;2023-05-07T02:11:25;3.93;;;1.93;;
36383;SDS011;22418;51.210;6.976;2023-05-07T02:13:55;3.10;;;1.53;;
36383;SDS011;22418;51.210;6.976;2023-05-07T02:16:26;3.93;;;1.60;;
36383;SDS011;22418;51.210;6.976;2023-05-07T02:18:56;5.00;;;1.83;;
36383;SDS011;22418;51.210;6.976;2023-05-07T02:21:28;4.18;;;1.70;;
36383;SDS011;22418;51.210;6.976;2023-05-07T02:23:58;5.07;;;1.97;;
36383;SDS011;22418;51.210;6.976;2023-05-07T02:26:29;6.10;;;1.90;;
36383;SDS011;22418;51.210;6.976;2023-05-07T02:28:59;6.83;;;1.73;;
36383;SDS011;22418;51.210;6.976;2023-05-07T02:31:30;3.63;;;1.97;;
36383;SDS011;22418;51.210;6.976;2023-05-07T02:34:01;3.40;;;1.87;;
36383;SDS011;22418;51.210;6.976;2023-05-07T02:36:32;3.78;;;1.50;;
36383;SDS011;22418;51.210;6.976;2023-05-07T02:39:02;3.03;;;1.87;;
36383;SDS011;22418;51.210;6.976;2023-05-07T02:41:33;3.47;;;1.80;;
36383;SDS011;22418;51.210;6.976;2023-05-07T02:44:04;3.97;;;1.88;;
36383;SDS011;22418;51.210;6.976;2023-05-07T02:46:35;3.50;;;1.73;;
36383;SDS011;22418;51.210;6.976;2023-05-07T02:49:05;3.53;;;1.80;;
36383;SDS011;22418;51.210;6.976;2023-05-07T02:51:36;4.03;;;2.03;;
36383;SDS011;22418;51.210;6.976;2023-05-07T02:54:06;4.10;;;1.73;;
36383;SDS011;22418;51.210;6.976;2023-05-07T02:56:37;3.70;;;1.73;;
36383;SDS011;22418;51.210;6.976;2023-05-07T02:59:07;2.90;;;1.60;;
36383;SDS011;22418;51.210;6.976;2023-05-07T03:01:38;2.57;;;1.73;;
36383;SDS011;22418;51.210;6.976;2023-05-07T03:04:09;3.10;;;1.47;;
36383;SDS011;22418;51.210;6.976;2023-05-07T03:06:40;5.70;;;1.60;;
36383;SDS011;22418;51.210;6.976;2023-05-07T03:09:11;7.53;;;1.63;;
36383;SDS011;22418;51.210;6.976;2023-05-07T03:11:42;3.70;;;1.40;;
36383;SDS011;22418;51.210;6.976;2023-05-07T03:14:12;2.80;;;1.50;;
36383;SDS011;22418;51.210;6.976;2023-05-07T03:16:45;5.70;;;1.73;;
36383;SDS011;22418;51.210;6.976;2023-05-07T03:19:15;3.10;;;1.50;;
36383;SDS011;22418;51.210;6.976;2023-05-07T03:21:46;8.47;;;1.90;;
36383;SDS011;22418;51.210;6.976;2023-05-07T03:24:17;4.00;;;1.93;;
36383;SDS011;22418;51.210;6.976;2023-05-07T03:26:47;12.87;;;1.87;;
36383;SDS011;22418;51.210;6.976;2023-05-07T03:29:18;5.77;;;2.10;;
36383;SDS011;22418;51.210;6.976;2023-05-07T03:31:49;2.88;;;1.50;;
36383;SDS011;22418;51.210;6.976;2023-05-07T03:34:20;2.73;;;1.60;;
36383;SDS011;22418;51.210;6.976;2023-05-07T03:36:52;3.30;;;1.50;;
36383;SDS011;22418;51.210;6.976;2023-05-07T03:39:22;3.93;;;1.90;;
36383;SDS011;22418;51.210;6.976;2023-05-07T03:41:53;3.27;;;1.80;;
36383;SDS011;22418;51.210;6.976;2023-05-07T03:44:23;2.13;;;1.50;;
36383;SDS011;22418;51.210;6.976;2023-05-07T03:46:54;3.73;;;1.50;;
36383;SDS011;22418;51.210;6.976;2023-05-07T03:49:25;6.18;;;2.35;;
36383;SDS011;22418;51.210;6.976;2023-05-07T03:51:55;6.90;;;2.03;;
36383;SDS011;22418;51.210;6.976;2023-05-07T03:54:26;2.87;;;1.30;;
36383;SDS011;22418;51.210;6.976;2023-05-07T03:56:57;3.47;;;1.50;;
36383;SDS011;22418;51.210;6.976;2023-05-07T03:59:27;5.77;;;1.90;;
36383;SDS011;22418;51.210;6.976;2023-05-07T04:01:58;8.50;;;1.80;;
36383;SDS011;22418;51.210;6.976;2023-05-07T04:04:28;3.83;;;1.90;;
36383;SDS011;22418;51.210;6.976;2023-05-07T04:07:02;6.57;;;1.90;;
36383;SDS011;22418;51.210;6.976;2023-05-07T04:09:33;2.80;;;1.87;;
36383;SDS011;22418;51.210;6.976;2023-05-07T04:12:03;9.03;;;1.90;;
36383;SDS011;22418;51.210;6.976;2023-05-07T04:14:34;6.95;;;1.60;;
36383;SDS011;22418;51.210;6.976;2023-05-07T04:17:05;3.50;;;1.70;;
36383;SDS011;22418;51.210;6.976;2023-05-07T04:19:37;3.70;;;1.90;;
36383;SDS011;22418;51.210;6.976;2023-05-07T04:22:09;6.00;;;1.60;;
36383;SDS011;22418;51.210;6.976;2023-05-07T04:24:40;8.10;;;1.90;;
36383;SDS011;22418;51.210;6.976;2023-05-07T04:27:10;5.07;;;2.00;;
36383;SDS011;22418;51.210;6.976;2023-05-07T04:29:41;3.70;;;1.70;;
36383;SDS011;22418;51.210;6.976;2023-05-07T04:32:12;2.63;;;1.75;;
36383;SDS011;22418;51.210;6.976;2023-05-07T04:34:43;4.85;;;1.92;;
36383;SDS011;22418;51.210;6.976;2023-05-07T04:37:13;4.97;;;1.47;;
36383;SDS011;22418;51.210;6.976;2023-05-07T04:39:44;4.77;;;1.67;;
36383;SDS011;22418;51.210;6.976;2023-05-07T04:42:18;1.87;;;1.40;;
36383;SDS011;22418;51.210;6.976;2023-05-07T04:44:52;8.10;;;1.73;;
36383;SDS011;22418;51.210;6.976;2023-05-07T04:47:23;4.32;;;2.20;;
36383;SDS011;22418;51.210;6.976;2023-05-07T04:49:54;5.43;;;1.60;;
36383;SDS011;22418;51.210;6.976;2023-05-07T04:52:24;4.13;;;1.50;;
36383;SDS011;22418;51.210;6.976;2023-05-07T04:54:55;3.08;;;1.50;;
36383;SDS011;22418;51.210;6.976;2023-05-07T04:57:26;4.10;;;1.63;;
36383;SDS011;22418;51.210;6.976;2023-05-07T04:59:57;7.68;;;1.92;;
36383;SDS011;22418;51.210;6.976;2023-05-07T05:02:27;2.53;;;1.55;;
36383;SDS011;22418;51.210;6.976;2023-05-07T05:04:58;3.57;;;1.77;;
36383;SDS011;22418;51.210;6.976;2023-05-07T05:07:29;8.63;;;1.90;;
36383;SDS011;22418;51.210;6.976;2023-05-07T05:09:59;3.20;;;1.90;;
36383;SDS011;22418;51.210;6.976;2023-05-07T05:12:30;4.70;;;1.60;;
36383;SDS011;22418;51.210;6.976;2023-05-07T05:15:00;6.40;;;2.00;;
36383;SDS011;22418;51.210;6.976;2023-05-07T05:17:31;2.37;;;1.57;;
36383;SDS011;22418;51.210;6.976;2023-05-07T05:22:33;3.53;;;2.00;;
36383;SDS011;22418;51.210;6.976;2023-05-07T05:25:04;4.20;;;2.27;;
36383;SDS011;22418;51.210;6.976;2023-05-07T05:27:35;3.70;;;1.60;;
36383;SDS011;22418;51.210;6.976;2023-05-07T05:30:06;4.53;;;1.80;;
36383;SDS011;22418;51.210;6.976;2023-05-07T05:32:37;2.85;;;1.65;;
36383;SDS011;22418;51.210;6.976;2023-05-07T05:35:07;2.57;;;1.57;;
36383;SDS011;22418;51.210;6.976;2023-05-07T05:37:38;3.72;;;1.75;;
36383;SDS011;22418;51.210;6.976;2023-05-07T05:40:09;5.20;;;1.60;;
36383;SDS011;22418;51.210;6.976;2023-05-07T05:42:40;4.55;;;1.55;;
36383;SDS011;22418;51.210;6.976;2023-05-07T05:45:10;7.03;;;1.73;;
36383;SDS011;22418;51.210;6.976;2023-05-07T05:47:41;5.73;;;2.43;;
36383;SDS011;22418;51.210;6.976;2023-05-07T05:50:11;4.80;;;1.53;;
36383;SDS011;22418;51.210;6.976;2023-05-07T05:52:42;7.23;;;1.97;;
36383;SDS011;22418;51.210;6.976;2023-05-07T05:55:12;3.03;;;1.67;;
36383;SDS011;22418;51.210;6.976;2023-05-07T05:57:43;8.93;;;1.90;;
36383;SDS011;22418;51.210;6.976;2023-05-07T06:00:14;5.87;;;1.73;;
36383;SDS011;22418;51.210;6.976;2023-05-07T06:02:44;3.27;;;1.63;;
36383;SDS011;22418;51.210;6.976;2023-05-07T06:05:15;5.93;;;1.63;;
36383;SDS011;22418;51.210;6.976;2023-05-07T06:07:48;6.75;;;2.00;;
36383;SDS011;22418;51.210;6.976;2023-05-07T06:10:18;3.80;;;1.80;;
36383;SDS011;22418;51.210;6.976;2023-05-07T06:12:49;3.97;;;2.53;;
36383;SDS011;22418;51.210;6.976;2023-05-07T06:15:19;3.70;;;1.93;;
36383;SDS011;22418;51.210;6.976;2023-05-07T06:17:50;6.30;;;2.03;;
36383;SDS011;22418;51.210;6.976;2023-05-07T06:20:21;6.23;;;1.97;;
36383;SDS011;22418;51.210;6.976;2023-05-07T06:22:51;3.00;;;1.93;;
36383;SDS011;22418;51.210;6.976;2023-05-07T06:25:22;7.30;;;1.80;;
36383;SDS011;22418;51.210;6.976;2023-05-07T06:27:52;7.03;;;1.80;;
36383;SDS011;22418;51.210;6.976;2023-05-07T06:30:23;6.80;;;2.30;;
36383;SDS011;22418;51.210;6.976;2023-05-07T06:32:54;5.00;;;2.10;;
36383;SDS011;22418;51.210;6.976;2023-05-07T06:35:24;5.20;;;1.90;;
36383;SDS011;22418;51.210;6.976;2023-05-07T06:37:55;4.70;;;2.27;;
36383;SDS011;22418;51.210;6.976;2023-05-07T06:40:25;5.37;;;1.97;;
36383;SDS011;22418;51.210;6.976;2023-05-07T06:42:56;6.85;;;2.00;;
36383;SDS011;22418;51.210;6.976;2023-05-07T06:45:27;6.13;;;1.70;;
36383;SDS011;22418;51.210;6.976;2023-05-07T06:47:57;4.77;;;1.80;;
36383;SDS011;22418;51.210;6.976;2023-05-07T06:50:28;5.37;;;1.70;;
36383;SDS011;22418;51.210;6.976;2023-05-07T06:52:58;8.53;;;1.83;;
36383;SDS011;22418;51.210;6.976;2023-05-07T06:55:29;11.33;;;3.53;;
36383;SDS011;22418;51.210;6.976;2023-05-07T06:57:59;4.47;;;1.70;;
36383;SDS011;22418;51.210;6.976;2023-05-07T07:00:31;3.53;;;1.83;;
36383;SDS011;22418;51.210;6.976;2023-05-07T07:03:02;6.20;;;1.73;;
36383;SDS011;22418;51.210;6.976;2023-05-07T07:05:33;7.67;;;2.37;;
36383;SDS011;22418;51.210;6.976;2023-05-07T07:08:04;5.03;;;2.27;;
36383;SDS011;22418;51.210;6.976;2023-05-07T07:10:34;5.05;;;1.90;;
36383;SDS011;22418;51.210;6.976;2023-05-07T07:13:05;10.18;;;1.90;;
36383;SDS011;22418;51.210;6.976;2023-05-07T07:15:36;3.50;;;1.93;;
36383;SDS011;22418;51.210;6.976;2023-05-07T07:18:06;3.03;;;1.60;;
36383;SDS011;22418;51.210;6.976;2023-05-07T07:20:37;5.20;;;1.97;;
36383;SDS011;22418;51.210;6.976;2023-05-07T07:23:07;8.33;;;2.03;;
36383;SDS011;22418;51.210;6.976;2023-05-07T07:25:38;3.13;;;1.43;;
36383;SDS011;22418;51.210;6.976;2023-05-07T07:28:08;4.93;;;1.40;;
36383;SDS011;22418;51.210;6.976;2023-05-07T07:30:40;4.20;;;1.70;;
36383;SDS011;22418;51.210;6.976;2023-05-07T07:33:11;8.23;;;1.70;;
36383;SDS011;22418;51.210;6.976;2023-05-07T07:35:41;3.90;;;1.57;;
36383;SDS011;22418;51.210;6.976;2023-05-07T07:38:12;4.15;;;1.40;;
36383;SDS011;22418;51.210;6.976;2023-05-07T07:40:43;4.67;;;1.43;;
36383;SDS011;22418;51.210;6.976;2023-05-07T07:43:14;4.90;;;1.48;;
36383;SDS011;22418;51.210;6.976;2023-05-07T07:45:44;2.75;;;1.42;;
36383;SDS011;22418;51.210;6.976;2023-05-07T07:48:15;2.65;;;1.30;;
36383;SDS011;22418;51.210;6.976;2023-05-07T07:50:48;6.47;;;1.53;;
36383;SDS011;22418;51.210;6.976;2023-05-07T07:53:20;2.58;;;1.10;;
36383;SDS011;22418;51.210;6.976;2023-05-07T07:55:50;2.57;;;1.30;;
36383;SDS011;22418;51.210;6.976;2023-05-07T07:58:21;3.10;;;1.40;;
36383;SDS011;22418;51.210;6.976;2023-05-07T08:00:52;4.15;;;1.45;;
36383;SDS011;22418;51.210;6.976;2023-05-07T08:03:24;5.15;;;1.20;;
36383;SDS011;22418;51.210;6.976;2023-05-07T08:05:55;1.97;;;1.03;;
36383;SDS011;22418;51.210;6.976;2023-05-07T08:08:25;2.77;;;1.40;;
36383;SDS011;22418;51.210;6.976;2023-05-07T08:10:56;2.00;;;1.17;;
36383;SDS011;22418;51.210;6.976;2023-05-07T08:13:26;3.45;;;1.45;;
36383;SDS011;22418;51.210;6.976;2023-05-07T08:15:57;4.35;;;1.15;;
36383;SDS011;22418;51.210;6.976;2023-05-07T08:18:27;5.77;;;1.23;;
36383;SDS011;22418;51.210;6.976;2023-05-07T08:20:58;2.22;;;1.20;;
36383;SDS011;22418;51.210;6.976;2023-05-07T08:23:29;2.10;;;1.00;;
36383;SDS011;22418;51.210;6.976;2023-05-07T08:26:00;6.38;;;1.73;;
36383;SDS011;22418;51.210;6.976;2023-05-07T08:28:31;3.47;;;1.50;;
36383;SDS011;22418;51.210;6.976;2023-05-07T08:31:01;2.60;;;1.10;;
36383;SDS011;22418;51.210;6.976;2023-05-07T08:33:32;1.57;;;1.10;;
36383;SDS011;22418;51.210;6.976;2023-05-07T08:36:02;3.53;;;1.00;;
36383;SDS011;22418;51.210;6.976;2023-05-07T08:38:33;1.60;;;1.10;;
36383;SDS011;22418;51.210;6.976;2023-05-07T08:41:04;2.22;;;1.30;;
36383;SDS011;22418;51.210;6.976;2023-05-07T08:43:37;6.57;;;1.60;;
36383;SDS011;22418;51.210;6.976;2023-05-07T08:46:10;5.32;;;1.33;;
36383;SDS011;22418;51.210;6.976;2023-05-07T08:48:50;2.33;;;1.35;;
36383;SDS011;22418;51.210;6.976;2023-05-07T08:51:21;2.30;;;1.17;;
36383;SDS011;22418;51.210;6.976;2023-05-07T08:53:52;2.53;;;1.00;;
36383;SDS011;22418;51.210;6.976;2023-05-07T08:56:22;2.00;;;1.10;;
36383;SDS011;22418;51.210;6.976;2023-05-07T08:58:53;2.75;;;1.40;;
36383;SDS011;22418;51.210;6.976;2023-05-07T09:01:26;3.30;;;1.25;;
36383;SDS011;22418;51.210;6.976;2023-05-07T09:03:57;4.72;;;1.70;;
36383;SDS011;22418;51.210;6.976;2023-05-07T09:06:28;6.32;;;3.00;;
36383;SDS011;22418;51.210;6.976;2023-05-07T09:08:58;3.23;;;1.50;;
36383;SDS011;22418;51.210;6.976;2023-05-07T09:11:31;6.93;;;1.27;;
36383;SDS011;22418;51.210;6.976;2023-05-07T09:14:01;5.10;;;1.30;;
36383;SDS011;22418;51.210;6.976;2023-05-07T09:16:32;3.10;;;1.40;;
36383;SDS011;22418;51.210;6.976;2023-05-07T09:19:03;4.03;;;1.00;;
36383;SDS011;22418;51.210;6.976;2023-05-07T09:21:33;3.10;;;1.33;;
36383;SDS011;22418;51.210;6.976;2023-05-07T09:26:35;3.07;;;1.07;;
36383;SDS011;22418;51.210;6.976;2023-05-07T09:29:07;2.77;;;1.27;;
36383;SDS011;22418;51.210;6.976;2023-05-07T09:34:08;2.93;;;1.30;;
36383;SDS011;22418;51.210;6.976;2023-05-07T09:36:38;3.30;;;1.10;;
36383;SDS011;22418;51.210;6.976;2023-05-07T09:39:09;3.03;;;1.40;;
36383;SDS011;22418;51.210;6.976;2023-05-07T09:41:44;3.15;;;1.10;;
36383;SDS011;22418;51.210;6.976;2023-05-07T09:44:15;3.63;;;1.25;;
36383;SDS011;22418;51.210;6.976;2023-05-07T09:46:46;4.05;;;1.55;;
36383;SDS011;22418;51.210;6.976;2023-05-07T09:49:25;4.22;;;1.20;;
36383;SDS011;22418;51.210;6.976;2023-05-07T09:52:00;2.00;;;1.15;;
36383;SDS011;22418;51.210;6.976;2023-05-07T09:54:32;4.55;;;1.10;;
36383;SDS011;22418;51.210;6.976;2023-05-07T09:57:04;1.83;;;1.10;;
36383;SDS011;22418;51.210;6.976;2023-05-07T09:59:37;2.05;;;0.93;;
36383;SDS011;22418;51.210;6.976;2023-05-07T10:02:08;3.67;;;1.40;;
36383;SDS011;22418;51.210;6.976;2023-05-07T10:04:40;1.63;;;0.95;;
36383;SDS011;22418;51.210;6.976;2023-05-07T10:07:11;3.95;;;1.23;;
36383;SDS011;22418;51.210;6.976;2023-05-07T10:09:43;1.98;;;1.13;;
36383;SDS011;22418;51.210;6.976;2023-05-07T10:12:16;1.80;;;1.10;;
36383;SDS011;22418;51.210;6.976;2023-05-07T10:14:48;3.63;;;1.23;;
36383;SDS011;22418;51.210;6.976;2023-05-07T10:17:20;3.15;;;1.63;;
36383;SDS011;22418;51.210;6.976;2023-05-07T10:19:53;3.92;;;1.10;;
36383;SDS011;22418;51.210;6.976;2023-05-07T10:22:24;2.05;;;1.08;;
36383;SDS011;22418;51.210;6.976;2023-05-07T10:24:57;2.20;;;0.90;;
36383;SDS011;22418;51.210;6.976;2023-05-07T10:27:32;1.92;;;1.08;;
36383;SDS011;22418;51.210;6.976;2023-05-07T10:32:55;1.73;;;0.88;;
36383;SDS011;22418;51.210;6.976;2023-05-07T10:35:38;5.93;;;1.30;;
36383;SDS011;22418;51.210;6.976;2023-05-07T10:38:12;3.15;;;1.02;;
36383;SDS011;22418;51.210;6.976;2023-05-07T10:40:43;3.75;;;1.10;;
36383;SDS011;22418;51.210;6.976;2023-05-07T10:43:14;4.00;;;1.17;;
36383;SDS011;22418;51.210;6.976;2023-05-07T10:46:01;4.27;;;1.07;;
36383;SDS011;22418;51.210;6.976;2023-05-07T10:51:30;2.53;;;1.10;;
36383;SDS011;22418;51.210;6.976;2023-05-07T10:56:43;7.80;;;3.15;;
36383;SDS011;22418;51.210;6.976;2023-05-07T11:01:57;1.58;;;1.20;;
36383;SDS011;22418;51.210;6.976;2023-05-07T11:04:33;4.10;;;1.17;;
36383;SDS011;22418;51.210;6.976;2023-05-07T11:15:11;7.13;;;1.40;;
36383;SDS011;22418;51.210;6.976;2023-05-07T11:17:55;2.45;;;1.10;;
36383;SDS011;22418;51.210;6.976;2023-05-07T11:26:04;4.63;;;1.40;;
36383;SDS011;22418;51.210;6.976;2023-05-07T11:28:42;3.35;;;1.27;;
36383;SDS011;22418;51.210;6.976;2023-05-07T11:31:13;4.65;;;1.30;;
36383;SDS011;22418;51.210;6.976;2023-05-07T11:33:43;4.00;;;1.20;;
36383;SDS011;22418;51.210;6.976;2023-05-07T11:36:14;2.30;;;1.00;;
36383;SDS011;22418;51.210;6.976;2023-05-07T11:38:45;2.60;;;1.15;;
36383;SDS011;22418;51.210;6.976;2023-05-07T11:41:16;3.15;;;1.13;;
36383;SDS011;22418;51.210;6.976;2023-05-07T11:43:55;2.95;;;1.17;;
36383;SDS011;22418;51.210;6.976;2023-05-07T11:46:27;6.07;;;1.80;;
36383;SDS011;22418;51.210;6.976;2023-05-07T11:48:58;2.88;;;1.42;;
36383;SDS011;22418;51.210;6.976;2023-05-07T11:51:31;2.95;;;1.38;;
36383;SDS011;22418;51.210;6.976;2023-05-07T11:54:03;2.13;;;1.27;;
36383;SDS011;22418;51.210;6.976;2023-05-07T11:56:38;2.35;;;1.30;;
36383;SDS011;22418;51.210;6.976;2023-05-07T11:59:09;2.63;;;1.47;;
36383;SDS011;22418;51.210;6.976;2023-05-07T12:01:42;2.53;;;1.13;;
36383;SDS011;22418;51.210;6.976;2023-05-07T12:04:18;3.50;;;1.30;;
36383;SDS011;22418;51.210;6.976;2023-05-07T12:06:53;3.38;;;1.25;;
36383;SDS011;22418;51.210;6.976;2023-05-07T12:09:25;6.25;;;1.38;;
36383;SDS011;22418;51.210;6.976;2023-05-07T12:11:56;5.30;;;1.30;;
36383;SDS011;22418;51.210;6.976;2023-05-07T12:14:27;3.13;;;1.30;;
36383;SDS011;22418;51.210;6.976;2023-05-07T12:16:59;4.63;;;1.40;;
36383;SDS011;22418;51.210;6.976;2023-05-07T12:19:33;2.55;;;1.17;;
36383;SDS011;22418;51.210;6.976;2023-05-07T12:22:05;4.70;;;1.30;;
36383;SDS011;22418;51.210;6.976;2023-05-07T12:27:15;3.92;;;1.52;;
36383;SDS011;22418;51.210;6.976;2023-05-07T12:29:47;6.32;;;1.50;;
36383;SDS011;22418;51.210;6.976;2023-05-07T12:32:18;5.57;;;1.73;;
36383;SDS011;22418;51.210;6.976;2023-05-07T12:34:50;4.90;;;1.50;;
36383;SDS011;22418;51.210;6.976;2023-05-07T12:37:23;3.38;;;1.67;;
36383;SDS011;22418;51.210;6.976;2023-05-07T12:40:04;7.93;;;1.77;;
36383;SDS011;22418;51.210;6.976;2023-05-07T12:42:40;7.72;;;1.95;;
36383;SDS011;22418;51.210;6.976;2023-05-07T12:45:15;6.97;;;2.50;;
36383;SDS011;22418;51.210;6.976;2023-05-07T12:47:46;4.22;;;2.20;;
36383;SDS011;22418;51.210;6.976;2023-05-07T12:50:17;3.33;;;2.03;;
36383;SDS011;22418;51.210;6.976;2023-05-07T12:52:48;6.27;;;2.20;;
36383;SDS011;22418;51.210;6.976;2023-05-07T12:55:18;6.10;;;1.93;;
36383;SDS011;22418;51.210;6.976;2023-05-07T12:57:49;3.72;;;1.90;;
36383;SDS011;22418;51.210;6.976;2023-05-07T13:00:39;5.80;;;2.03;;
36383;SDS011;22418;51.210;6.976;2023-05-07T13:03:10;4.88;;;1.70;;
36383;SDS011;22418;51.210;6.976;2023-05-07T13:08:11;6.47;;;2.40;;
36383;SDS011;22418;51.210;6.976;2023-05-07T13:10:42;7.90;;;2.23;;
36383;SDS011;22418;51.210;6.976;2023-05-07T13:13:12;5.47;;;2.40;;
36383;SDS011;22418;51.210;6.976;2023-05-07T13:15:43;2.63;;;1.60;;
36383;SDS011;22418;51.210;6.976;2023-05-07T13:18:14;4.73;;;1.80;;
36383;SDS011;22418;51.210;6.976;2023-05-07T13:20:44;2.97;;;1.73;;
36383;SDS011;22418;51.210;6.976;2023-05-07T13:23:15;3.17;;;1.90;;
36383;SDS011;22418;51.210;6.976;2023-05-07T13:25:45;5.67;;;2.47;;
36383;SDS011;22418;51.210;6.976;2023-05-07T13:28:16;4.30;;;2.27;;
36383;SDS011;22418;51.210;6.976;2023-05-07T13:30:47;11.17;;;2.63;;
36383;SDS011;22418;51.210;6.976;2023-05-07T13:33:18;6.03;;;2.50;;
36383;SDS011;22418;51.210;6.976;2023-05-07T13:35:48;5.43;;;2.92;;
36383;SDS011;22418;51.210;6.976;2023-05-07T13:38:19;7.97;;;2.60;;
36383;SDS011;22418;51.210;6.976;2023-05-07T13:40:49;4.53;;;2.63;;
36383;SDS011;22418;51.210;6.976;2023-05-07T13:43:20;4.93;;;2.90;;
36383;SDS011;22418;51.210;6.976;2023-05-07T13:45:50;10.23;;;2.90;;
36383;SDS011;22418;51.210;6.976;2023-05-07T13:48:21;8.03;;;3.53;;
36383;SDS011;22418;51.210;6.976;2023-05-07T13:50:52;8.80;;;2.90;;
36383;SDS011;22418;51.210;6.976;2023-05-07T13:53:22;5.13;;;3.40;;
36383;SDS011;22418;51.210;6.976;2023-05-07T13:55:53;7.43;;;3.97;;
36383;SDS011;22418;51.210;6.976;2023-05-07T13:58:23;8.27;;;4.40;;
36383;SDS011;22418;51.210;6.976;2023-05-07T14:00:54;14.00;;;5.10;;
36383;SDS011;22418;51.210;6.976;2023-05-07T14:03:24;9.43;;;4.97;;
36383;SDS011;22418;51.210;6.976;2023-05-07T14:05:55;9.33;;;5.57;;
36383;SDS011;22418;51.210;6.976;2023-05-07T14:08:27;11.38;;;5.63;;
36383;SDS011;22418;51.210;6.976;2023-05-07T14:10:58;9.20;;;5.30;;
36383;SDS011;22418;51.210;6.976;2023-05-07T14:13:29;10.00;;;5.70;;
36383;SDS011;22418;51.210;6.976;2023-05-07T14:16:00;7.85;;;5.30;;
36383;SDS011;22418;51.210;6.976;2023-05-07T14:18:31;12.63;;;4.53;;
36383;SDS011;22418;51.210;6.976;2023-05-07T14:21:04;6.78;;;4.65;;
36383;SDS011;22418;51.210;6.976;2023-05-07T14:23:36;7.18;;;5.15;;
36383;SDS011;22418;51.210;6.976;2023-05-07T14:26:06;11.27;;;4.97;;
36383;SDS011;22418;51.210;6.976;2023-05-07T14:28:37;8.30;;;5.77;;
36383;SDS011;22418;51.210;6.976;2023-05-07T14:31:09;10.32;;;5.60;;
36383;SDS011;22418;51.210;6.976;2023-05-07T14:33:40;7.00;;;5.13;;
36383;SDS011;22418;51.210;6.976;2023-05-07T14:36:10;8.43;;;5.43;;
36383;SDS011;22418;51.210;6.976;2023-05-07T14:38:41;10.67;;;6.60;;
36383;SDS011;22418;51.210;6.976;2023-05-07T14:41:11;10.63;;;6.37;;
36383;SDS011;22418;51.210;6.976;2023-05-07T14:43:42;11.73;;;7.47;;
36383;SDS011;22418;51.210;6.976;2023-05-07T14:46:13;15.60;;;7.80;;
36383;SDS011;22418;51.210;6.976;2023-05-07T14:48:45;15.52;;;9.05;;
36383;SDS011;22418;51.210;6.976;2023-05-07T14:51:16;19.67;;;9.25;;
36383;SDS011;22418;51.210;6.976;2023-05-07T14:53:46;15.07;;;9.00;;
36383;SDS011;22418;51.210;6.976;2023-05-07T14:56:17;16.07;;;8.50;;
36383;SDS011;22418;51.210;6.976;2023-05-07T14:58:47;14.53;;;8.57;;
36383;SDS011;22418;51.210;6.976;2023-05-07T15:01:20;19.40;;;9.88;;
36383;SDS011;22418;51.210;6.976;2023-05-07T15:03:50;13.52;;;9.50;;
36383;SDS011;22418;51.210;6.976;2023-05-07T15:06:21;16.47;;;9.30;;
36383;SDS011;22418;51.210;6.976;2023-05-07T15:08:52;17.93;;;9.83;;
36383;SDS011;22418;51.210;6.976;2023-05-07T15:11:22;13.77;;;9.68;;
36383;SDS011;22418;51.210;6.976;2023-05-07T15:13:53;18.47;;;10.90;;
36383;SDS011;22418;51.210;6.976;2023-05-07T15:16:24;19.60;;;10.37;;
36383;SDS011;22418;51.210;6.976;2023-05-07T15:18:54;18.77;;;9.80;;
36383;SDS011;22418;51.210;6.976;2023-05-07T15:21:25;14.57;;;10.63;;
36383;SDS011;22418;51.210;6.976;2023-05-07T15:23:56;17.60;;;10.80;;
36383;SDS011;22418;51.210;6.976;2023-05-07T15:26:27;17.17;;;11.03;;
36383;SDS011;22418;51.210;6.976;2023-05-07T15:28:57;16.17;;;12.07;;
36383;SDS011;22418;51.210;6.976;2023-05-07T15:31:28;19.73;;;12.37;;
36383;SDS011;22418;51.210;6.976;2023-05-07T15:33:59;20.30;;;12.90;;
36383;SDS011;22418;51.210;6.976;2023-05-07T15:36:30;23.20;;;12.40;;
36383;SDS011;22418;51.210;6.976;2023-05-07T15:39:01;18.90;;;11.27;;
36383;SDS011;22418;51.210;6.976;2023-05-07T15:41:33;17.45;;;10.63;;
36383;SDS011;22418;51.210;6.976;2023-05-07T15:44:04;17.97;;;11.10;;
36383;SDS011;22418;51.210;6.976;2023-05-07T15:46:34;15.53;;;9.87;;